.
WxDataArchive / Data Records for 2013-05-04
2013-05-03 May 2013 2013-05-05

Data Records for Saturday, 04 May 2013

Time	Temp	Chill	HIndex	Humid	Dewpt	 Wind 	HiWind	WindDir	Rain 	Barom 
-----	----	-----	------	-----	-----	------	------	-------	-----	----- 
00:00	63.1	63.1	63.1	48	43.1	0	2	90	0.00	29.980 
00:05	62.9	62.9	62.9	49	43.4	0	2	90	0.00	29.980 
00:10	62.7	62.7	62.7	48	42.7	1	3	90	0.00	29.980 
00:15	62.7	62.7	62.7	46	41.6	1	3	90	0.00	29.980 
00:20	62.7	62.7	62.7	46	41.6	0	1	90	0.00	29.980 
00:25	62.7	62.7	62.7	46	41.6	1	4	90	0.00	29.980 
00:30	62.7	62.7	62.7	45	41.0	0	2	90	0.00	29.982 
00:35	62.7	62.7	62.7	44	40.5	1	3	90	0.00	29.982 
00:40	62.9	62.9	62.9	43	40.1	1	5	90	0.00	29.982 
00:45	63.1	63.1	63.1	44	40.8	0	2	90	0.00	29.985 
00:50	63.1	63.1	63.1	42	39.6	0	3	90	0.00	29.985 
00:55	63.1	63.1	63.1	42	39.6	0	2	90	0.00	29.985 
01:00	63.2	63.2	63.2	42	39.7	1	3	90	0.00	29.983 
01:05	63.1	63.1	63.1	42	39.6	0	2	90	0.00	29.983 
01:10	63.1	63.1	63.1	42	39.6	0	2	90	0.00	29.983 
01:15	63.1	63.1	63.1	42	39.6	0	2	90	0.00	29.983 
01:20	62.9	62.9	62.9	42	39.5	0	3	90	0.00	29.983 
01:25	62.7	62.7	62.7	43	39.9	0	2	90	0.00	29.983 
01:30	62.6	62.6	62.6	43	39.8	0	1	90	0.00	29.983 
01:35	62.4	62.4	62.4	43	39.6	0	2	90	0.00	29.983 
01:40	62.3	62.3	62.3	43	39.5	0	1	90	0.00	29.983 
01:45	62.1	62.1	62.1	43	39.3	0	1	90	0.00	29.985 
01:50	62.0	62.0	62.0	44	39.8	0	2	90	0.00	29.985 
01:55	62.0	62.0	62.0	43	39.2	1	4	90	0.00	29.985 
02:00	62.0	62.0	62.0	43	39.2	1	3	90	0.00	29.986 
02:05	62.0	62.0	62.0	44	39.8	0	1	90	0.00	29.986 
02:10	61.8	61.8	61.8	43	39.1	1	3	90	0.00	29.986 
02:15	61.8	61.8	61.8	44	39.7	0	3	90	0.00	29.987 
02:20	61.8	61.8	61.8	44	39.7	1	6	90	0.00	29.987 
02:25	61.6	61.6	61.6	44	39.5	0	2	90	0.00	29.987 
02:30	61.5	61.5	61.5	44	39.4	0	2	90	0.00	29.988 
02:35	61.3	61.3	61.3	44	39.2	0	3	90	0.00	29.988 
02:40	61.3	61.3	61.3	44	39.2	0	2	90	0.00	29.988 
02:45	61.3	61.3	61.3	44	39.2	1	3	90	0.00	29.985 
02:50	61.3	61.3	61.3	43	38.6	1	4	90	0.00	29.985 
02:55	61.5	61.5	61.5	43	38.8	1	5	90	0.00	29.985 
03:00	61.5	61.5	61.5	43	38.8	1	3	90	0.00	29.988 
03:05	61.5	61.5	61.5	44	39.4	1	3	90	0.00	29.988 
03:10	61.5	61.5	61.5	44	39.4	0	3	90	0.00	29.988 
03:15	61.3	61.3	61.3	44	39.2	1	2	90	0.00	29.988 
03:20	61.2	61.2	61.2	45	39.7	1	3	90	0.00	29.988 
03:25	61.0	61.0	61.0	46	40.1	0	2	90	0.00	29.988 
03:30	60.7	60.7	60.7	46	39.8	1	2	90	0.00	29.991 
03:35	60.4	60.4	60.4	47	40.1	1	3	90	0.00	29.991 
03:40	60.2	60.2	60.2	48	40.4	2	5	90	0.00	29.991 
03:45	60.2	60.2	60.2	48	40.4	2	5	90	0.00	29.991 
03:50	60.2	60.2	60.2	48	40.4	1	5	90	0.00	29.991 
03:55	60.2	60.2	60.2	48	40.4	1	3	90	0.00	29.991 
04:00	60.1	60.1	60.1	48	40.3	2	5	112	0.00	29.992 
04:05	60.1	60.1	60.1	48	40.3	1	3	112	0.00	29.992 
04:10	59.9	59.9	59.9	49	40.7	1	4	112	0.00	29.992 
04:15	59.8	59.8	59.8	50	41.1	1	5	90	0.00	29.993 
04:20	59.6	59.6	59.6	50	40.9	1	3	90	0.00	29.993 
04:25	59.5	59.5	59.5	51	41.4	1	3	90	0.00	29.993 
04:30	59.3	59.3	59.3	51	41.2	1	3	90	0.00	29.994 
04:35	59.2	59.2	59.2	52	41.6	1	4	90	0.00	29.994 
04:40	59.0	59.0	59.0	52	41.4	1	2	90	0.00	29.994 
04:45	59.0	59.0	59.0	53	41.9	2	7	90	0.00	29.995 
04:50	58.9	58.9	58.9	53	41.8	1	5	90	0.00	29.995 
04:55	58.7	58.7	58.7	54	42.1	1	3	90	0.00	29.995 
05:00	58.4	58.4	58.4	55	42.3	0	2	90	0.00	29.999 
05:05	58.3	58.3	58.3	55	42.2	0	2	90	0.00	29.999 
05:10	58.1	58.1	58.1	56	42.5	1	2	90	0.00	29.999 
05:15	58.0	58.0	58.0	57	42.9	0	2	90	0.00	29.999 
05:20	57.8	57.8	57.8	57	42.7	0	2	90	0.00	29.999 
05:25	57.8	57.8	57.8	58	43.1	1	2	90	0.00	29.999 
05:30	57.6	57.6	57.6	58	42.9	0	2	90	0.00	30.001 
05:35	57.5	57.5	57.5	58	42.8	0	2	90	0.00	30.001 
05:40	57.5	57.5	57.5	59	43.3	0	3	90	0.00	30.001 
05:45	57.3	57.3	57.3	59	43.1	0	1	90	0.00	30.004 
05:50	57.2	57.2	57.2	60	43.4	1	3	90	0.00	30.004 
05:55	57.2	57.2	57.2	60	43.4	1	3	90	0.00	30.004 
06:00	57.0	57.0	57.0	61	43.7	0	2	90	0.00	30.006 
06:05	57.0	57.0	57.0	61	43.7	1	3	90	0.00	30.006 
06:10	57.0	57.0	57.0	61	43.7	0	2	90	0.00	30.006 
06:15	56.9	56.9	56.9	61	43.6	1	2	90	0.00	30.008 
06:20	56.9	56.9	56.9	62	44.0	1	2	90	0.00	30.008 
06:25	56.9	56.9	56.9	62	44.0	1	4	90	0.00	30.008 
06:30	56.9	56.9	56.9	62	44.0	1	3	90	0.00	30.008 
06:35	57.0	57.0	57.0	62	44.1	1	3	90	0.00	30.008 
06:40	57.0	57.0	57.0	62	44.1	1	3	90	0.00	30.008 
06:45	57.0	57.0	57.0	62	44.1	1	5	90	0.00	30.008 
06:50	57.2	57.2	57.2	62	44.3	1	3	90	0.00	30.008 
06:55	57.0	57.0	57.0	62	44.1	0	2	90	0.00	30.008 
07:00	56.9	56.9	56.9	63	44.4	1	2	90	0.00	30.010 
07:05	56.9	56.9	56.9	63	44.4	1	2	90	0.00	30.010 
07:10	56.9	56.9	56.9	63	44.4	1	2	90	0.00	30.010 
07:15	56.9	56.9	56.9	63	44.4	1	2	90	0.00	30.012 
07:20	56.9	56.9	56.9	63	44.4	1	4	90	0.00	30.012 
07:25	56.9	56.9	56.9	64	44.8	1	4	90	0.00	30.012 
07:30	56.9	56.9	56.9	63	44.4	1	4	90	0.00	30.011 
07:35	56.9	56.9	56.9	64	44.8	1	3	90	0.00	30.011 
07:40	56.9	56.9	56.9	64	44.8	0	3	90	0.00	30.011 
07:45	56.9	56.9	56.9	64	44.8	1	3	90	0.00	30.012 
07:50	57.2	57.2	57.2	63	44.7	0	2	90	0.00	30.012 
07:55	57.6	57.6	57.6	62	44.7	1	3	90	0.00	30.012 
08:00	58.3	58.3	58.3	62	45.3	1	4	90	0.00	30.012 
08:05	58.9	58.9	58.9	61	45.5	1	5	90	0.00	30.012 
08:10	59.3	59.3	59.3	60	45.4	2	4	90	0.00	30.012 
08:15	59.9	59.9	59.9	58	45.1	1	4	90	0.00	30.012 
08:20	60.5	60.5	60.5	58	45.6	2	5	90	0.00	30.012 
08:25	61.0	61.0	61.0	57	45.7	2	5	90	0.00	30.012 
08:30	61.5	61.5	61.5	57	46.1	2	6	90	0.00	30.011 
08:35	61.8	61.8	61.8	56	45.9	2	6	90	0.00	30.011 
08:40	62.1	62.1	62.1	55	45.7	2	6	90	0.00	30.011 
08:45	62.3	62.3	62.3	54	45.4	3	7	90	0.00	30.012 
08:50	62.6	62.6	62.6	54	45.7	3	11	90	0.00	30.012 
08:55	62.6	62.6	62.6	53	45.2	4	11	90	0.00	30.012 
09:00	62.6	62.6	62.6	54	45.7	4	11	90	0.00	30.011 
09:05	62.7	62.7	62.7	53	45.3	4	8	90	0.00	30.011 
09:10	63.1	63.1	63.1	53	45.7	3	9	112	0.00	30.011 
09:15	63.5	63.5	63.5	54	46.6	2	7	112	0.00	30.014 
09:20	63.5	63.5	63.5	56	47.5	3	7	112	0.00	30.014 
09:25	63.5	63.5	63.5	58	48.5	1	4	135	0.00	30.014 
09:30	63.5	63.5	63.5	56	47.5	2	6	90	0.00	30.011 
09:35	63.7	63.7	63.7	57	48.2	2	5	112	0.00	30.011 
09:40	63.4	63.4	63.4	55	46.9	3	7	90	0.00	30.011 
09:45	63.5	63.5	63.5	54	46.6	3	6	90	0.00	30.014 
09:50	63.7	63.7	63.7	54	46.7	3	8	90	0.00	30.014 
09:55	64.0	64.0	64.0	50	45.0	3	9	90	0.00	30.014 
10:00	64.3	64.3	64.3	50	45.3	3	7	112	0.00	30.012 
10:05	64.8	64.8	64.8	49	45.2	3	6	112	0.00	30.012 
10:10	65.3	65.3	65.3	48	45.1	2	5	90	0.00	30.012 
10:15	65.6	65.6	65.6	47	44.8	3	10	90	0.00	30.016 
10:20	65.8	65.8	65.8	47	45.0	4	11	90	0.00	30.016 
10:25	65.6	65.6	65.6	47	44.8	4	7	112	0.00	30.016 
10:30	65.8	65.8	65.8	47	45.0	3	9	112	0.00	30.016 
10:35	65.8	65.8	65.8	46	44.4	2	6	90	0.00	30.016 
10:40	65.5	65.5	65.5	46	44.2	4	10	90	0.00	30.016 
10:45	66.0	66.0	66.0	47	45.2	2	9	90	0.00	30.017 
10:50	66.3	66.3	66.3	44	43.7	4	12	90	0.00	30.017 
10:55	66.6	66.6	66.6	45	44.6	3	7	112	0.00	30.017 
11:00	67.3	67.3	67.3	45	45.2	3	11	112	0.00	30.014 
11:05	67.4	67.4	67.4	44	44.7	3	7	90	0.00	30.014 
11:10	67.6	67.6	67.6	43	44.3	3	9	112	0.00	30.014 
11:15	67.4	67.4	67.4	43	44.1	4	11	90	0.00	30.019 
11:20	67.6	67.6	67.6	43	44.3	3	10	112	0.00	30.019 
11:25	67.4	67.4	67.4	42	43.5	4	9	112	0.00	30.019 
11:30	67.3	67.3	67.3	43	44.0	2	5	112	0.00	30.017 
11:35	67.4	67.4	67.4	42	43.5	2	6	112	0.00	30.017 
11:40	67.9	67.9	67.9	41	43.3	2	4	90	0.00	30.017 
11:45	68.8	68.8	68.8	43	45.4	3	7	112	0.00	30.011 
11:50	69.3	69.3	69.3	41	44.6	2	5	112	0.00	30.011 
11:55	69.1	69.1	69.1	41	44.4	3	7	112	0.00	30.011 
12:00	69.1	69.1	69.1	40	43.8	4	14	90	0.00	30.010 
12:05	68.4	68.4	68.4	42	44.4	5	10	90	0.00	30.010 
12:10	68.8	68.8	68.8	41	44.1	4	10	112	0.00	30.010 
12:15	68.8	68.8	68.8	40	43.5	5	9	90	0.00	30.009 
12:20	68.6	68.6	68.6	40	43.3	4	10	90	0.00	30.009 
12:25	68.8	68.8	68.8	41	44.1	4	10	90	0.00	30.009 
12:30	68.9	68.9	68.9	40	43.6	4	10	90	0.00	30.007 
12:35	69.1	69.1	69.1	39	43.1	3	11	90	0.00	30.007 
12:40	69.1	69.1	69.1	39	43.1	4	11	90	0.00	30.007 
12:45	68.8	68.8	68.8	38	42.1	5	13	90	0.00	30.006 
12:50	68.8	68.8	68.8	39	42.8	4	10	90	0.00	30.006 
12:55	69.1	69.1	69.1	38	42.4	4	10	112	0.00	30.006 
13:00	69.6	69.6	69.6	38	42.9	4	9	90	0.00	29.996 
13:05	69.8	69.8	69.8	39	43.7	4	11	90	0.00	29.996 
13:10	70.3	70.3	70.3	38	43.5	4	9	112	0.00	29.996 
13:15	70.6	70.6	70.6	40	45.1	3	7	90	0.00	29.992 
13:20	70.8	70.8	70.8	39	44.6	4	10	112	0.00	29.992 
13:25	70.6	70.6	70.6	39	44.4	4	11	90	0.00	29.992 
13:30	70.8	70.8	70.8	39	44.6	3	9	90	0.00	29.987 
13:35	70.9	70.9	70.9	35	41.9	4	12	90	0.00	29.987 
13:40	70.8	70.8	70.8	36	42.5	4	11	112	0.00	29.987 
13:45	70.4	70.4	70.4	36	42.2	6	12	90	0.00	29.983 
13:50	70.8	70.8	70.8	37	43.2	4	12	90	0.00	29.983 
13:55	70.4	70.4	70.4	34	40.7	6	12	90	0.00	29.983 
14:00	70.3	70.3	70.3	35	41.3	5	10	112	0.00	29.980 
14:05	70.8	70.8	70.8	34	41.0	5	10	90	0.00	29.980 
14:10	70.9	70.9	70.9	33	40.3	4	13	90	0.00	29.980 
14:15	71.1	71.1	71.1	35	42.0	4	10	90	0.00	29.977 
14:20	71.3	71.3	71.3	34	41.5	5	13	90	0.00	29.977 
14:25	71.5	71.5	71.5	33	40.9	3	7	90	0.00	29.977 
14:30	71.6	71.6	71.6	34	41.7	5	10	90	0.00	29.972 
14:35	71.5	71.5	71.5	32	40.1	5	11	112	0.00	29.972 
14:40	71.1	71.1	71.1	34	41.3	5	11	90	0.00	29.972 
14:45	70.8	70.8	70.8	30	37.8	5	11	112	0.00	29.975 
14:50	70.3	70.3	70.3	29	36.5	4	7	90	0.00	29.975 
14:55	70.3	70.3	70.3	32	39.0	4	11	90	0.00	29.975 
15:00	70.4	70.4	70.4	31	38.3	4	11	112	0.00	29.970 
15:05	70.6	70.6	70.6	28	35.9	6	12	90	0.00	29.970 
15:10	70.4	70.4	70.4	27	34.8	7	14	90	0.00	29.970 
15:15	70.6	70.6	70.6	28	35.9	5	11	112	0.00	29.968 
15:20	71.1	71.1	71.1	27	35.4	5	12	90	0.00	29.968 
15:25	71.1	71.1	71.1	27	35.4	6	12	112	0.00	29.968 
15:30	70.8	70.8	70.8	28	36.1	7	17	90	0.00	29.967 
15:35	70.6	70.6	70.6	28	35.9	5	12	90	0.00	29.967 
15:40	70.6	70.6	70.6	28	35.9	5	13	90	0.00	29.967 
15:45	70.9	70.9	70.9	31	38.7	5	10	90	0.00	29.967 
15:50	71.5	71.5	71.5	29	37.6	4	12	90	0.00	29.967 
15:55	71.3	71.3	71.3	28	36.5	6	14	90	0.00	29.967 
16:00	70.8	70.8	70.8	31	38.7	6	14	112	0.00	29.966 
16:05	70.4	70.4	70.4	28	35.7	5	12	90	0.00	29.966 
16:10	70.8	70.8	70.8	28	36.1	4	8	90	0.00	29.966 
16:15	70.8	70.8	70.8	28	36.1	6	13	90	0.00	29.965 
16:20	70.8	70.8	70.8	28	36.1	5	13	90	0.00	29.965 
16:25	70.3	70.3	70.3	28	35.6	5	13	90	0.00	29.965 
16:30	69.8	69.8	69.8	29	36.1	4	11	90	0.00	29.961 
16:35	69.8	69.8	69.8	30	37.0	4	10	90	0.00	29.961 
16:40	69.8	69.8	69.8	31	37.8	3	9	112	0.00	29.961 
16:45	69.9	69.9	69.9	31	37.9	3	6	90	0.00	29.957 
16:50	70.3	70.3	70.3	30	37.4	5	11	112	0.00	29.957 
16:55	70.3	70.3	70.3	29	36.5	5	10	90	0.00	29.957 
17:00	70.1	70.1	70.1	30	37.2	6	12	90	0.00	29.955 
17:05	69.9	69.9	69.9	32	38.7	3	10	112	0.00	29.955 
17:10	69.9	69.9	69.9	31	37.9	4	11	90	0.00	29.955 
17:15	70.1	70.1	70.1	33	39.7	4	9	90	0.00	29.958 
17:20	70.4	70.4	70.4	33	39.9	4	13	90	0.00	29.958 
17:25	70.4	70.4	70.4	33	39.9	4	13	112	0.00	29.958 
17:30	70.3	70.3	70.3	33	39.8	4	15	112	0.00	29.954 
17:35	70.4	70.4	70.4	34	40.7	3	7	112	0.00	29.954 
17:40	70.6	70.6	70.6	36	42.3	3	8	90	0.00	29.954 
17:45	70.9	70.9	70.9	32	39.6	4	9	90	0.00	29.952 
17:50	70.9	70.9	70.9	35	41.9	3	8	90	0.00	29.952 
17:55	71.1	71.1	71.1	35	42.0	4	8	90	0.00	29.952 
18:00	70.8	70.8	70.8	35	41.8	5	14	112	0.00	29.953 
18:05	70.4	70.4	70.4	34	40.7	6	15	90	0.00	29.953 
18:10	69.9	69.9	69.9	37	42.4	6	12	90	0.00	29.953 
18:15	69.8	69.8	69.8	38	43.0	4	13	112	0.00	29.956 
18:20	69.6	69.6	69.6	37	42.2	4	10	90	0.00	29.956 
18:25	69.6	69.6	69.6	39	43.5	5	13	90	0.00	29.956 
18:30	69.4	69.4	69.4	38	42.7	5	10	112	0.00	29.958 
18:35	69.3	69.3	69.3	39	43.3	6	13	90	0.00	29.958 
18:40	69.1	69.1	69.1	39	43.1	5	11	90	0.00	29.958 
18:45	68.9	68.9	68.9	39	42.9	5	13	90	0.00	29.957 
18:50	68.8	68.8	68.8	39	42.8	5	13	90	0.00	29.957 
18:55	68.8	68.8	68.8	39	42.8	5	13	90	0.00	29.957 
19:00	68.6	68.6	68.6	39	42.6	5	11	90	0.00	29.963 
19:05	68.4	68.4	68.4	39	42.5	5	14	90	0.00	29.963 
19:10	68.3	68.3	68.3	40	43.0	4	11	90	0.00	29.963 
19:15	68.3	68.3	68.3	40	43.0	4	9	90	0.00	29.966 
19:20	68.1	68.1	68.1	40	42.9	4	10	90	0.00	29.966 
19:25	68.1	68.1	68.1	40	42.9	4	11	90	0.00	29.966 
19:30	67.9	67.9	67.9	42	44.0	3	6	90	0.00	29.967 
19:35	67.9	67.9	67.9	41	43.3	4	12	90	0.00	29.967 
19:40	67.9	67.9	67.9	40	42.7	5	11	112	0.00	29.967 
19:45	67.8	67.8	67.8	41	43.2	5	12	90	0.00	29.972 
19:50	67.6	67.6	67.6	42	43.7	3	12	90	0.00	29.972 
19:55	67.4	67.4	67.4	41	42.9	4	10	90	0.00	29.972 
20:00	67.3	67.3	67.3	42	43.4	3	9	90	0.00	29.983 
20:05	66.9	66.9	66.9	43	43.7	3	9	90	0.00	29.983 
20:10	66.8	66.8	66.8	44	44.2	3	5	90	0.00	29.983 
20:15	66.6	66.6	66.6	44	44.0	2	6	90	0.00	29.979 
20:20	66.4	66.4	66.4	44	43.8	4	9	90	0.00	29.979 
20:25	66.3	66.3	66.3	44	43.7	3	6	90	0.00	29.979 
20:30	66.1	66.1	66.1	45	44.1	3	10	90	0.00	29.984 
20:35	65.8	65.8	65.8	46	44.4	2	4	90	0.00	29.984 
20:40	65.6	65.6	65.6	46	44.3	2	6	90	0.00	29.984 
20:45	65.3	65.3	65.3	46	44.0	3	6	112	0.00	29.990 
20:50	65.2	65.2	65.2	46	43.9	2	6	112	0.00	29.990 
20:55	65.2	65.2	65.2	46	43.9	2	5	68	0.00	29.990 
21:00	65.0	65.0	65.0	47	44.3	2	4	90	0.00	29.995 
21:05	64.8	64.8	64.8	47	44.1	2	4	90	0.00	29.995 
21:10	64.7	64.7	64.7	47	44.0	2	5	90	0.00	29.995 
21:15	64.7	64.7	64.7	48	44.6	2	5	90	0.00	29.998 
21:20	64.5	64.5	64.5	48	44.4	2	4	90	0.00	29.998 
21:25	64.3	64.3	64.3	48	44.2	2	4	90	0.00	29.998 
21:30	64.3	64.3	64.3	48	44.2	2	6	90	0.00	30.000 
21:35	64.3	64.3	64.3	48	44.2	2	4	90	0.00	30.000 
21:40	64.0	64.0	64.0	49	44.5	1	2	90	0.00	30.000 
21:45	63.7	63.7	63.7	50	44.7	2	6	90	0.00	30.003 
21:50	63.4	63.4	63.4	52	45.5	1	4	90	0.00	30.003 
21:55	63.1	63.1	63.1	52	45.2	2	5	90	0.00	30.003 
22:00	62.7	62.7	62.7	52	44.8	2	5	90	0.00	30.008 
22:05	62.3	62.3	62.3	53	44.9	1	4	90	0.00	30.008 
22:10	62.0	62.0	62.0	54	45.2	2	4	90	0.00	30.008 
22:15	61.6	61.6	61.6	54	44.8	2	7	90	0.00	30.009 
22:20	61.3	61.3	61.3	54	44.5	1	5	90	0.00	30.009 
22:25	61.2	61.2	61.2	54	44.4	1	6	90	0.00	30.009 
22:30	61.0	61.0	61.0	55	44.7	0	2	90	0.00	30.012 
22:35	60.5	60.5	60.5	55	44.2	1	3	90	0.00	30.012 
22:40	60.2	60.2	60.2	56	44.4	0	3	90	0.00	30.012 
22:45	60.1	60.1	60.1	56	44.3	1	4	90	0.00	30.014 
22:50	59.8	59.8	59.8	57	44.5	1	3	90	0.00	30.014 
22:55	59.6	59.6	59.6	57	44.3	1	4	112	0.00	30.014 
23:00	59.5	59.5	59.5	58	44.7	1	3	90	0.00	30.015 
23:05	59.2	59.2	59.2	58	44.4	1	4	90	0.00	30.015 
23:10	59.0	59.0	59.0	58	44.2	1	3	68	0.00	30.015 
23:15	58.9	58.9	58.9	58	44.1	1	3	68	0.00	30.010 
23:20	58.6	58.6	58.6	58	43.9	1	3	68	0.00	30.010 
23:25	58.4	58.4	58.4	58	43.7	1	3	68	0.00	30.010 
23:30	58.3	58.3	58.3	58	43.6	0	2	68	0.00	30.013 
23:35	58.3	58.3	58.3	58	43.6	0	3	68	0.00	30.013 
23:40	58.1	58.1	58.1	59	43.8	0	2	68	0.00	30.013 
23:45	57.8	57.8	57.8	59	43.6	0	2	68	0.00	30.010 
23:50	57.6	57.6	57.6	59	43.4	1	4	68	0.00	30.010 
23:55	57.6	57.6	57.6	59	43.4	2	5	68	0.00	30.010 

CoCoRaHS
IN-AL-39
A2 Web Hosting
Creative Commons License
GoDaddy
search engine by freefind advanced

loaded 2018-11-22 06:21:52 • last modified 2010-11-18 10:43:29
Privacy PolicyDisclaimer
• wx.awcolley.com is powered by PmWiki v.2002016 •
• all content (unless otherwise noted) © 2018 A W Colley